Time,TemperatureF,DewpointF,PressureIn,WindDirection,WindDirectionDegrees,WindSpeedMPH,WindSpeedGustMPH,Humidity,HourlyPrecipIn,Conditions,Clouds,dailyrainin,SoftwareType,DateUTC
2013-02-09 00:02:00,0.0,-4.0,30.33,South,180,3.0,5.0,83,-99.99,,,-99.99,,2013-02-09 05:02:00,
2013-02-09 00:12:00,0.0,-4.0,30.33,South,180,3.0,5.0,83,-99.99,,,-99.99,,2013-02-09 05:12:00,
2013-02-09 00:22:00,1.0,-3.0,30.33,South,190,4.0,6.0,84,-99.99,,,-99.99,,2013-02-09 05:22:00,
2013-02-09 00:32:00,1.0,-2.0,30.33,South,185,4.0,6.0,84,-99.99,,,-99.99,,2013-02-09 05:32:00,
2013-02-09 00:42:00,1.0,-2.0,30.33,South,185,4.0,6.0,84,-99.99,,,-99.99,,2013-02-09 05:42:00,
2013-02-09 00:52:00,2.0,-2.0,30.33,South,175,4.0,5.0,84,-99.99,,,-99.99,,2013-02-09 05:52:00,
2013-02-09 01:01:00,0.0,-4.0,30.33,SSE,165,2.0,5.0,83,-99.99,,,-99.99,,2013-02-09 06:01:00,
2013-02-09 01:11:00,0.0,-4.0,30.33,SSE,165,2.0,5.0,83,-99.99,,,-99.99,,2013-02-09 06:11:00,
2013-02-09 01:21:00,0.0,-3.0,30.33,South,185,3.0,6.0,84,-99.99,,,-99.99,,2013-02-09 06:21:00,
2013-02-09 01:32:00,1.0,-3.0,30.33,South,170,4.0,6.0,84,-99.99,,,-99.99,,2013-02-09 06:32:00,
2013-02-09 01:42:00,1.0,-3.0,30.33,South,170,4.0,6.0,84,-99.99,,,-99.99,,2013-02-09 06:42:00,
2013-02-09 01:51:00,1.0,-3.0,30.34,South,185,2.0,6.0,84,-99.99,,,-99.99,,2013-02-09 06:51:00,
2013-02-09 02:01:00,0.0,-4.0,30.34,South,170,2.0,5.0,83,-99.99,,,-99.99,,2013-02-09 07:01:00,
2013-02-09 02:11:00,0.0,-4.0,30.34,South,170,2.0,5.0,83,-99.99,,,-99.99,,2013-02-09 07:11:00,
2013-02-09 02:21:00,0.0,-4.0,30.34,SSE,160,3.0,6.0,83,-99.99,,,-99.99,,2013-02-09 07:21:00,
2013-02-09 02:31:00,0.0,-4.0,30.33,SSE,165,3.0,6.0,83,-99.99,,,-99.99,,2013-02-09 07:31:00,
2013-02-09 02:42:00,0.0,-4.0,30.33,SSE,165,3.0,6.0,83,-99.99,,,-99.99,,2013-02-09 07:42:00,
2013-02-09 02:51:00,-1.0,-5.0,30.33,SSE,165,3.0,5.0,82,-99.99,,,-99.99,,2013-02-09 07:51:00,
2013-02-09 03:01:00,-2.0,-6.0,30.32,SSE,155,3.0,4.0,82,-99.99,,,-99.99,,2013-02-09 08:01:00,
2013-02-09 03:11:00,-2.0,-6.0,30.32,SSE,155,3.0,4.0,82,-99.99,,,-99.99,,2013-02-09 08:11:00,
2013-02-09 03:21:00,-2.0,-6.0,30.32,South,180,4.0,5.0,82,-99.99,,,-99.99,,2013-02-09 08:21:00,
2013-02-09 03:31:00,-3.0,-7.0,30.33,South,180,3.0,5.0,82,-99.99,,,-99.99,,2013-02-09 08:31:00,
2013-02-09 03:42:00,-3.0,-7.0,30.33,South,180,3.0,5.0,82,-99.99,,,-99.99,,2013-02-09 08:42:00,
2013-02-09 03:52:00,-3.0,-8.0,30.33,SSE,165,2.0,4.0,81,-99.99,,,-99.99,,2013-02-09 08:52:00,
2013-02-09 04:03:00,-3.0,-8.0,30.32,South,175,2.0,5.0,81,-99.99,,,-99.99,,2013-02-09 09:03:00,
2013-02-09 04:11:00,-3.0,-8.0,30.32,South,175,2.0,5.0,81,-99.99,,,-99.99,,2013-02-09 09:11:00,
2013-02-09 04:21:00,-3.0,-8.0,30.33,South,185,2.0,5.0,81,-99.99,,,-99.99,,2013-02-09 09:21:00,
2013-02-09 04:32:00,-3.0,-7.0,30.32,SSE,150,3.0,5.0,81,-99.99,,,-99.99,,2013-02-09 09:32:00,
2013-02-09 04:42:00,-3.0,-7.0,30.32,SSE,150,3.0,5.0,81,-99.99,,,-99.99,,2013-02-09 09:42:00,
2013-02-09 04:51:00,-3.0,-7.0,30.32,South,175,3.0,6.0,81,-99.99,,,-99.99,,2013-02-09 09:51:00,
2013-02-09 05:01:00,-3.0,-7.0,30.31,South,180,4.0,6.0,81,-99.99,,,-99.99,,2013-02-09 10:01:00,
2013-02-09 05:11:00,-3.0,-7.0,30.31,South,180,4.0,6.0,81,-99.99,,,-99.99,,2013-02-09 10:11:00,
2013-02-09 05:21:00,-2.0,-7.0,30.32,South,185,3.0,5.0,81,-99.99,,,-99.99,,2013-02-09 10:21:00,
2013-02-09 05:32:00,-1.0,-5.0,30.32,South,175,3.0,6.0,82,-99.99,,,-99.99,,2013-02-09 10:32:00,
2013-02-09 05:42:00,-1.0,-5.0,30.32,South,175,3.0,6.0,82,-99.99,,,-99.99,,2013-02-09 10:42:00,
2013-02-09 05:51:00,1.0,-3.0,30.32,South,180,4.0,9.0,83,-99.99,,,-99.99,,2013-02-09 10:51:00,
2013-02-09 06:01:00,2.0,-2.0,30.31,South,175,4.0,8.0,84,-99.99,,,-99.99,,2013-02-09 11:01:00,
2013-02-09 06:11:00,2.0,-2.0,30.31,South,175,4.0,8.0,84,-99.99,,,-99.99,,2013-02-09 11:11:00,
2013-02-09 06:22:00,4.0,0.0,30.31,SSW,200,5.0,9.0,84,-99.99,,,-99.99,,2013-02-09 11:22:00,
2013-02-09 06:32:00,4.0,1.0,30.30,South,180,4.0,7.0,85,-99.99,,,-99.99,,2013-02-09 11:32:00,
2013-02-09 06:41:00,4.0,1.0,30.30,South,180,4.0,7.0,85,-99.99,,,-99.99,,2013-02-09 11:41:00,
2013-02-09 06:52:00,2.0,-2.0,30.29,SE,145,4.0,7.0,84,-99.99,,,-99.99,,2013-02-09 11:52:00,
2013-02-09 07:02:00,2.0,-2.0,30.29,SE,145,4.0,7.0,84,-99.99,,,-99.99,,2013-02-09 12:02:00,
2013-02-09 07:11:00,2.0,-2.0,30.29,SE,145,4.0,7.0,84,-99.99,,,-99.99,,2013-02-09 12:11:00,
2013-02-09 07:21:00,1.0,-3.0,30.29,SSE,160,4.0,6.0,84,-99.99,,,-99.99,,2013-02-09 12:21:00,
2013-02-09 07:32:00,1.0,-3.0,30.29,South,180,4.0,6.0,84,-99.99,,,-99.99,,2013-02-09 12:32:00,
2013-02-09 07:42:00,1.0,-3.0,30.29,South,180,4.0,6.0,84,-99.99,,,-99.99,,2013-02-09 12:42:00,
2013-02-09 07:52:00,0.0,-4.0,30.28,SSW,195,3.0,6.0,83,-99.99,,,-99.99,,2013-02-09 12:52:00,
2013-02-09 08:02:00,0.0,-4.0,30.29,South,185,3.0,6.0,83,-99.99,,,-99.99,,2013-02-09 13:02:00,
2013-02-09 08:11:00,0.0,-4.0,30.29,South,185,3.0,6.0,83,-99.99,,,-99.99,,2013-02-09 13:11:00,
2013-02-09 08:22:00,1.0,-2.0,30.29,South,190,3.0,6.0,84,-99.99,,,-99.99,,2013-02-09 13:22:00,
2013-02-09 08:32:00,3.0,-1.0,30.28,South,185,4.0,6.0,84,-99.99,,,-99.99,,2013-02-09 13:32:00,
2013-02-09 08:42:00,3.0,-1.0,30.28,South,185,4.0,6.0,84,-99.99,,,-99.99,,2013-02-09 13:42:00,
2013-02-09 08:52:00,4.0,1.0,30.28,South,185,4.0,7.0,85,-99.99,,,-99.99,,2013-02-09 13:52:00,
2013-02-09 09:01:00,4.0,1.0,30.27,South,170,4.0,9.0,85,-99.99,,,-99.99,,2013-02-09 14:01:00,
2013-02-09 09:11:00,4.0,1.0,30.27,South,170,4.0,9.0,85,-99.99,,,-99.99,,2013-02-09 14:11:00,
2013-02-09 09:21:00,5.0,2.0,30.27,SSE,155,4.0,8.0,85,-99.99,,,-99.99,,2013-02-09 14:21:00,
2013-02-09 09:32:00,8.0,5.0,30.26,South,175,5.0,11.0,86,-99.99,,,-99.99,,2013-02-09 14:32:00,
2013-02-09 09:42:00,8.0,5.0,30.26,South,175,5.0,11.0,86,-99.99,,,-99.99,,2013-02-09 14:42:00,
2013-02-09 09:52:00,9.0,6.0,30.25,South,170,4.0,10.0,85,-99.99,,,-99.99,,2013-02-09 14:52:00,
2013-02-09 10:02:00,11.0,7.0,30.25,SSE,150,4.0,7.0,85,-99.99,,,-99.99,,2013-02-09 15:02:00,
2013-02-09 10:11:00,11.0,7.0,30.25,SSE,150,4.0,7.0,85,-99.99,,,-99.99,,2013-02-09 15:11:00,
2013-02-09 10:21:00,13.0,9.0,30.24,SSE,160,5.0,9.0,85,-99.99,,,-99.99,,2013-02-09 15:21:00,
2013-02-09 10:32:00,14.0,10.0,30.23,SSE,165,5.0,10.0,84,-99.99,,,-99.99,,2013-02-09 15:32:00,
2013-02-09 10:42:00,14.0,10.0,-100.00,SSE,165,5.0,10.0,84,-99.99,,,-99.99,,2013-02-09 15:42:00,
2013-02-09 10:51:00,17.0,13.0,30.24,SSE,160,4.0,11.0,84,-99.99,,,-99.99,,2013-02-09 15:51:00,
2013-02-09 11:01:00,18.0,14.0,30.23,SSW,205,6.0,14.0,83,-99.99,,,-99.99,,2013-02-09 16:01:00,
2013-02-09 11:11:00,18.0,14.0,30.23,SSW,205,6.0,14.0,83,-99.99,,,-99.99,,2013-02-09 16:11:00,
2013-02-09 11:22:00,18.0,13.0,30.24,South,185,7.0,15.0,81,-99.99,,,-99.99,,2013-02-09 16:22:00,
2013-02-09 11:31:00,19.0,14.0,30.24,SSW,205,7.0,13.0,80,-99.99,,,-99.99,,2013-02-09 16:31:00,
2013-02-09 11:42:00,19.0,14.0,30.24,SSW,205,7.0,13.0,80,-99.99,,,-99.99,,2013-02-09 16:42:00,
2013-02-09 11:52:00,20.0,14.0,30.23,SSE,165,8.0,14.0,77,-99.99,,,-99.99,,2013-02-09 16:52:00,
2013-02-09 12:01:00,20.0,13.0,30.22,South,180,9.0,19.0,74,-99.99,,,-99.99,,2013-02-09 17:01:00,
2013-02-09 12:11:00,20.0,13.0,30.22,South,180,9.0,19.0,74,-99.99,,,-99.99,,2013-02-09 17:11:00,
2013-02-09 12:21:00,22.0,14.0,30.22,SSE,160,7.0,18.0,69,-99.99,,,-99.99,,2013-02-09 17:21:00,
2013-02-09 12:32:00,22.0,14.0,30.21,SSW,200,6.0,17.0,70,-99.99,,,-99.99,,2013-02-09 17:32:00,
2013-02-09 12:42:00,22.0,14.0,30.21,SSW,200,6.0,17.0,70,-99.99,,,-99.99,,2013-02-09 17:42:00,
2013-02-09 12:52:00,23.0,14.0,30.21,SSE,150,6.0,16.0,69,-99.99,,,-99.99,,2013-02-09 17:52:00,
2013-02-09 13:02:00,23.0,15.0,30.20,SSE,155,7.0,15.0,71,-99.99,,,-99.99,,2013-02-09 18:02:00,
2013-02-09 13:12:00,23.0,15.0,30.20,SSE,155,7.0,15.0,71,-99.99,,,-99.99,,2013-02-09 18:12:00,
2013-02-09 13:23:00,24.0,16.0,30.19,SSE,165,10.0,17.0,70,-99.99,,,-99.99,,2013-02-09 18:23:00,
2013-02-09 13:32:00,26.0,16.0,30.17,SSE,155,11.0,22.0,68,-99.99,,,-99.99,,2013-02-09 18:32:00,
2013-02-09 13:42:00,26.0,16.0,30.17,SSE,155,11.0,22.0,68,-99.99,,,-99.99,,2013-02-09 18:42:00,
2013-02-09 13:51:00,27.0,17.0,30.17,South,185,9.0,19.0,68,-99.99,,,-99.99,,2013-02-09 18:51:00,
2013-02-09 14:01:00,27.0,18.0,30.16,SSE,165,9.0,21.0,66,-99.99,,,-99.99,,2013-02-09 19:01:00,
2013-02-09 14:11:00,27.0,18.0,30.16,SSE,165,9.0,21.0,66,-99.99,,,-99.99,,2013-02-09 19:11:00,
2013-02-09 14:22:00,27.0,18.0,30.16,South,190,12.0,22.0,66,-99.99,,,-99.99,,2013-02-09 19:22:00,
2013-02-09 14:32:00,29.0,18.0,30.14,South,175,9.0,21.0,65,-99.99,,,-99.99,,2013-02-09 19:32:00,
2013-02-09 14:42:00,29.0,18.0,30.14,South,175,9.0,21.0,65,-99.99,,,-99.99,,2013-02-09 19:42:00,
2013-02-09 14:52:00,28.0,19.0,30.13,SSE,160,15.0,28.0,67,-99.99,,,-99.99,,2013-02-09 19:52:00,
2013-02-09 15:01:00,28.0,18.0,30.13,South,180,12.0,31.0,67,-99.99,,,-99.99,,2013-02-09 20:01:00,
2013-02-09 15:11:00,28.0,18.0,30.13,South,180,12.0,31.0,67,-99.99,,,-99.99,,2013-02-09 20:11:00,
2013-02-09 15:21:00,27.0,18.0,30.13,South,185,14.0,30.0,67,-99.99,,,-99.99,,2013-02-09 20:21:00,
2013-02-09 15:32:00,27.0,18.0,30.12,South,175,11.0,27.0,68,-99.99,,,-99.99,,2013-02-09 20:32:00,
2013-02-09 15:42:00,27.0,18.0,30.12,South,175,11.0,27.0,68,-99.99,,,-99.99,,2013-02-09 20:42:00,
2013-02-09 15:52:00,27.0,19.0,30.13,South,185,15.0,26.0,69,-99.99,,,-99.99,,2013-02-09 20:52:00,
2013-02-09 16:02:00,27.0,18.0,30.12,SSE,160,8.0,28.0,69,-99.99,,,-99.99,,2013-02-09 21:02:00,
2013-02-09 16:11:00,27.0,18.0,30.12,SSE,160,8.0,28.0,69,-99.99,,,-99.99,,2013-02-09 21:11:00,
2013-02-09 16:21:00,27.0,18.0,30.11,SSW,210,10.0,30.0,70,-99.99,,,-99.99,,2013-02-09 21:21:00,
2013-02-09 16:32:00,27.0,19.0,30.10,South,170,9.0,24.0,71,-99.99,,,-99.99,,2013-02-09 21:32:00,
2013-02-09 16:42:00,27.0,19.0,30.10,South,170,9.0,24.0,71,-99.99,,,-99.99,,2013-02-09 21:42:00,
2013-02-09 16:52:00,27.0,19.0,30.08,South,170,14.0,24.0,71,-99.99,,,-99.99,,2013-02-09 21:52:00,
2013-02-09 17:01:00,27.0,19.0,30.08,South,170,14.0,24.0,71,-99.99,,,-99.99,,2013-02-09 22:01:00,
2013-02-09 17:11:00,27.0,19.0,30.08,South,170,14.0,24.0,71,-99.99,,,-99.99,,2013-02-09 22:11:00,
2013-02-09 17:21:00,28.0,20.0,30.08,South,180,10.0,26.0,72,-99.99,,,-99.99,,2013-02-09 22:21:00,
2013-02-09 17:32:00,28.0,20.0,30.08,South,170,12.0,28.0,72,-99.99,,,-99.99,,2013-02-09 22:32:00,
2013-02-09 17:42:00,28.0,20.0,30.08,South,170,12.0,28.0,72,-99.99,,,-99.99,,2013-02-09 22:42:00,
2013-02-09 17:52:00,27.0,20.0,30.07,South,180,15.0,27.0,73,-99.99,,,-99.99,,2013-02-09 22:52:00,
2013-02-09 18:01:00,27.0,20.0,30.07,South,170,12.0,26.0,74,-99.99,,,-99.99,,2013-02-09 23:01:00,
2013-02-09 18:11:00,27.0,20.0,30.07,South,170,12.0,26.0,74,-99.99,,,-99.99,,2013-02-09 23:11:00,
2013-02-09 18:21:00,27.0,21.0,30.06,South,180,12.0,23.0,76,-99.99,,,-99.99,,2013-02-09 23:21:00,
2013-02-09 18:32:00,27.0,21.0,30.05,South,185,11.0,20.0,77,-99.99,,,-99.99,,2013-02-09 23:32:00,
2013-02-09 18:42:00,27.0,21.0,-100.00,South,185,11.0,20.0,77,-99.99,,,-99.99,,2013-02-09 23:42:00,
2013-02-09 18:50:00,26.0,21.0,-100.00,South,175,11.0,30.0,81,-99.99,,,-99.99,,2013-02-09 23:50:00,
2013-02-09 18:52:00,26.0,21.0,30.05,South,170,10.0,24.0,79,-99.99,,,-99.99,,2013-02-09 23:52:00,
2013-02-09 19:02:00,26.0,21.0,30.05,SSE,165,11.0,26.0,80,-99.99,,,-99.99,,2013-02-10 00:02:00,
2013-02-09 19:12:00,26.0,21.0,30.05,SSE,165,11.0,26.0,80,-99.99,,,-99.99,,2013-02-10 00:12:00,
2013-02-09 19:22:00,26.0,20.0,30.06,South,170,11.0,26.0,80,-99.99,,,-99.99,,2013-02-10 00:22:00,
2013-02-09 19:32:00,26.0,21.0,30.05,South,175,11.0,30.0,81,-99.99,,,-99.99,,2013-02-10 00:32:00,
2013-02-09 19:42:00,26.0,21.0,-100.00,South,175,11.0,30.0,81,-99.99,,,-99.99,,2013-02-10 00:42:00,
2013-02-09 20:01:00,26.0,21.0,30.05,South,185,11.0,25.0,81,-99.99,,,-99.99,,2013-02-10 01:01:00,
2013-02-09 20:12:00,26.0,21.0,30.05,South,185,11.0,25.0,81,-99.99,,,-99.99,,2013-02-10 01:12:00,
2013-02-09 20:21:00,25.0,21.0,30.04,South,180,11.0,27.0,82,-99.99,,,-99.99,,2013-02-10 01:21:00,
2013-02-09 20:32:00,25.0,21.0,30.06,South,190,10.0,25.0,82,-99.99,,,-99.99,,2013-02-10 01:32:00,
2013-02-09 20:42:00,25.0,21.0,30.06,South,190,10.0,25.0,82,-99.99,,,-99.99,,2013-02-10 01:42:00,
2013-02-09 20:51:00,26.0,21.0,30.05,South,185,11.0,25.0,82,-99.99,,,-99.99,,2013-02-10 01:51:00,
2013-02-09 21:01:00,26.0,21.0,30.05,South,185,10.0,23.0,82,-99.99,,,-99.99,,2013-02-10 02:01:00,
2013-02-09 21:11:00,26.0,21.0,30.05,South,185,10.0,23.0,82,-99.99,,,-99.99,,2013-02-10 02:11:00,
2013-02-09 21:22:00,26.0,21.0,30.05,South,190,11.0,19.0,82,-99.99,,,-99.99,,2013-02-10 02:22:00,
2013-02-09 21:32:00,26.0,21.0,30.05,South,175,6.0,18.0,82,-99.99,,,-99.99,,2013-02-10 02:32:00,
2013-02-09 21:42:00,26.0,21.0,30.05,South,175,6.0,18.0,82,-99.99,,,-99.99,,2013-02-10 02:42:00,
2013-02-09 21:52:00,26.0,21.0,30.04,South,175,8.0,21.0,82,-99.99,,,-99.99,,2013-02-10 02:52:00,
2013-02-09 22:02:00,26.0,21.0,30.04,South,190,11.0,21.0,83,-99.99,,,-99.99,,2013-02-10 03:02:00,
2013-02-09 22:11:00,26.0,21.0,30.04,South,190,11.0,21.0,83,-99.99,,,-99.99,,2013-02-10 03:11:00,
2013-02-09 22:21:00,26.0,21.0,30.04,South,170,9.0,22.0,82,-99.99,,,-99.99,,2013-02-10 03:21:00,
2013-02-09 22:32:00,26.0,21.0,30.04,South,170,8.0,19.0,82,-99.99,,,-99.99,,2013-02-10 03:32:00,
2013-02-09 22:42:00,26.0,21.0,30.04,South,170,8.0,19.0,82,-99.99,,,-99.99,,2013-02-10 03:42:00,
2013-02-09 22:51:00,26.0,21.0,30.04,South,180,6.0,17.0,82,-99.99,,,-99.99,,2013-02-10 03:51:00,
2013-02-09 23:01:00,26.0,21.0,30.05,South,185,3.0,15.0,82,-99.99,,,-99.99,,2013-02-10 04:01:00,
2013-02-09 23:11:00,26.0,21.0,30.05,South,185,3.0,15.0,82,-99.99,,,-99.99,,2013-02-10 04:11:00,
2013-02-09 23:21:00,26.0,21.0,30.05,SSW,205,6.0,13.0,81,-99.99,,,-99.99,,2013-02-10 04:21:00,
2013-02-09 23:32:00,26.0,21.0,30.06,SSE,155,5.0,14.0,81,-99.99,,,-99.99,,2013-02-10 04:32:00,
2013-02-09 23:42:00,26.0,21.0,30.06,SSE,155,5.0,14.0,81,-99.99,,,-99.99,,2013-02-10 04:42:00,
2013-02-09 23:52:00,26.0,21.0,30.05,South,185,4.0,13.0,81,-99.99,,,-99.99,,2013-02-10 04:52:00,